sensor_id;sensor_type;location;lat;lon;timestamp;pressure;altitude;pressure_sealevel;temperature;humidity
42705;BME280;28342;42.594;23.414;2022-09-09T00:04:30;94764.63;;;18.41;69.72
42705;BME280;28342;42.594;23.414;2022-09-09T00:09:40;94780.03;;;18.44;71.33
42705;BME280;28342;42.594;23.414;2022-09-09T00:12:17;94750.25;;;18.33;70.92
42705;BME280;28342;42.594;23.414;2022-09-09T00:14:56;94761.94;;;18.41;71.25
42705;BME280;28342;42.594;23.414;2022-09-09T00:17:58;94769.72;;;18.46;71.25
42705;BME280;28342;42.594;23.414;2022-09-09T00:20:45;94770.84;;;18.45;71.01
42705;BME280;28342;42.594;23.414;2022-09-09T00:23:34;94760.91;;;18.30;71.34
42705;BME280;28342;42.594;23.414;2022-09-09T00:26:09;94780.31;;;18.39;71.63
42705;BME280;28342;42.594;23.414;2022-09-09T00:29:18;94748.28;;;18.14;71.48
42705;BME280;28342;42.594;23.414;2022-09-09T00:31:45;94761.19;;;18.25;71.82
42705;BME280;28342;42.594;23.414;2022-09-09T00:34:23;94744.47;;;18.15;72.47
42705;BME280;28342;42.594;23.414;2022-09-09T00:36:57;94755.81;;;18.25;72.50
42705;BME280;28342;42.594;23.414;2022-09-09T00:47:43;94746.66;;;18.10;74.03
42705;BME280;28342;42.594;23.414;2022-09-09T00:50:35;94733.25;;;17.94;74.47
42705;BME280;28342;42.594;23.414;2022-09-09T00:56:13;94729.44;;;17.95;74.90
42705;BME280;28342;42.594;23.414;2022-09-09T01:01:18;94723.66;;;17.93;74.10
42705;BME280;28342;42.594;23.414;2022-09-09T01:03:54;94720.28;;;17.80;73.74
42705;BME280;28342;42.594;23.414;2022-09-09T01:06:30;94723.53;;;17.74;74.86
42705;BME280;28342;42.594;23.414;2022-09-09T01:12:01;94728.06;;;17.70;75.16
42705;BME280;28342;42.594;23.414;2022-09-09T01:14:40;94731.25;;;17.75;74.98
42705;BME280;28342;42.594;23.414;2022-09-09T01:17:48;94734.03;;;17.79;74.67
42705;BME280;28342;42.594;23.414;2022-09-09T01:20:23;94725.25;;;17.66;75.35
42705;BME280;28342;42.594;23.414;2022-09-09T01:28:34;94725.78;;;17.72;75.13
42705;BME280;28342;42.594;23.414;2022-09-09T01:31:05;94736.94;;;17.89;74.84
42705;BME280;28342;42.594;23.414;2022-09-09T01:33:32;94720.50;;;17.75;74.83
42705;BME280;28342;42.594;23.414;2022-09-09T01:38:48;94721.63;;;17.74;74.87
42705;BME280;28342;42.594;23.414;2022-09-09T01:41:15;94707.78;;;17.56;75.69
42705;BME280;28342;42.594;23.414;2022-09-09T01:43:43;94722.34;;;17.71;75.24
42705;BME280;28342;42.594;23.414;2022-09-09T01:46:11;94740.78;;;17.73;74.93
42705;BME280;28342;42.594;23.414;2022-09-09T01:48:37;94750.91;;;17.79;74.56
42705;BME280;28342;42.594;23.414;2022-09-09T01:51:04;94751.41;;;17.85;74.76
42705;BME280;28342;42.594;23.414;2022-09-09T01:53:39;94731.69;;;17.77;74.17
42705;BME280;28342;42.594;23.414;2022-09-09T01:59:01;94759.97;;;17.90;74.39
42705;BME280;28342;42.594;23.414;2022-09-09T02:01:57;94759.13;;;17.86;75.03
42705;BME280;28342;42.594;23.414;2022-09-09T02:04:43;94763.28;;;17.84;74.78
42705;BME280;28342;42.594;23.414;2022-09-09T02:07:30;94754.47;;;17.83;74.81
42705;BME280;28342;42.594;23.414;2022-09-09T02:13:28;94743.44;;;17.73;74.56
42705;BME280;28342;42.594;23.414;2022-09-09T02:16:03;94738.13;;;17.60;74.72
42705;BME280;28342;42.594;23.414;2022-09-09T02:18:52;94748.44;;;17.58;75.08
42705;BME280;28342;42.594;23.414;2022-09-09T02:21:21;94738.31;;;17.52;75.45
42705;BME280;28342;42.594;23.414;2022-09-09T02:24:15;94755.50;;;17.35;77.06
42705;BME280;28342;42.594;23.414;2022-09-09T02:26:44;94759.00;;;17.51;75.81
42705;BME280;28342;42.594;23.414;2022-09-09T02:29:30;94737.34;;;17.44;76.28
42705;BME280;28342;42.594;23.414;2022-09-09T02:32:30;94732.16;;;17.51;74.99
42705;BME280;28342;42.594;23.414;2022-09-09T02:35:07;94743.56;;;17.32;75.98
42705;BME280;28342;42.594;23.414;2022-09-09T02:37:37;94746.34;;;17.36;76.06
42705;BME280;28342;42.594;23.414;2022-09-09T02:40:23;94727.28;;;17.25;75.68
42705;BME280;28342;42.594;23.414;2022-09-09T02:42:48;94740.97;;;17.36;75.78
42705;BME280;28342;42.594;23.414;2022-09-09T02:45:18;94729.88;;;17.22;75.09
42705;BME280;28342;42.594;23.414;2022-09-09T02:56:23;94750.84;;;17.32;74.39
42705;BME280;28342;42.594;23.414;2022-09-09T02:58:50;94763.78;;;17.30;74.74
42705;BME280;28342;42.594;23.414;2022-09-09T03:01:17;94757.75;;;17.33;74.33
42705;BME280;28342;42.594;23.414;2022-09-09T03:03:47;94738.19;;;17.17;74.75
42705;BME280;28342;42.594;23.414;2022-09-09T03:06:13;94733.94;;;17.16;74.33
42705;BME280;28342;42.594;23.414;2022-09-09T03:08:59;94751.31;;;17.22;74.80
42705;BME280;28342;42.594;23.414;2022-09-09T03:11:27;94752.00;;;17.19;74.86
42705;BME280;28342;42.594;23.414;2022-09-09T03:13:53;94740.22;;;17.08;75.15
42705;BME280;28342;42.594;23.414;2022-09-09T03:16:23;94766.78;;;17.13;74.87
42705;BME280;28342;42.594;23.414;2022-09-09T03:18:49;94746.06;;;16.97;75.12
42705;BME280;28342;42.594;23.414;2022-09-09T03:21:15;94769.28;;;17.06;75.12
42705;BME280;28342;42.594;23.414;2022-09-09T03:23:41;94747.50;;;16.67;76.04
42705;BME280;28342;42.594;23.414;2022-09-09T03:26:09;94753.25;;;16.81;75.98
42705;BME280;28342;42.594;23.414;2022-09-09T03:28:35;94752.38;;;16.77;76.23
42705;BME280;28342;42.594;23.414;2022-09-09T03:31:02;94750.25;;;16.83;76.30
42705;BME280;28342;42.594;23.414;2022-09-09T03:33:29;94729.53;;;16.67;75.86
42705;BME280;28342;42.594;23.414;2022-09-09T03:35:56;94741.00;;;16.80;75.82
42705;BME280;28342;42.594;23.414;2022-09-09T03:38:25;94741.78;;;16.81;75.86
42705;BME280;28342;42.594;23.414;2022-09-09T03:40:52;94757.06;;;16.80;76.54
42705;BME280;28342;42.594;23.414;2022-09-09T03:43:24;94735.00;;;16.59;77.07
42705;BME280;28342;42.594;23.414;2022-09-09T03:45:51;94756.97;;;16.77;77.63
42705;BME280;28342;42.594;23.414;2022-09-09T03:48:17;94753.84;;;16.75;77.25
42705;BME280;28342;42.594;23.414;2022-09-09T03:50:51;94754.88;;;16.70;76.66
42705;BME280;28342;42.594;23.414;2022-09-09T03:53:18;94756.09;;;16.72;76.68
42705;BME280;28342;42.594;23.414;2022-09-09T03:55:55;94750.75;;;16.60;77.43
42705;BME280;28342;42.594;23.414;2022-09-09T03:58:29;94755.06;;;16.65;77.44
42705;BME280;28342;42.594;23.414;2022-09-09T04:01:08;94742.34;;;16.62;77.90
42705;BME280;28342;42.594;23.414;2022-09-09T04:03:41;94753.31;;;16.57;78.09
42705;BME280;28342;42.594;23.414;2022-09-09T04:06:09;94764.00;;;16.69;78.10
42705;BME280;28342;42.594;23.414;2022-09-09T04:08:34;94770.03;;;16.54;80.02
42705;BME280;28342;42.594;23.414;2022-09-09T04:11:03;94770.72;;;16.51;78.94
42705;BME280;28342;42.594;23.414;2022-09-09T04:13:37;94783.41;;;16.66;77.94
42705;BME280;28342;42.594;23.414;2022-09-09T04:16:04;94780.63;;;16.62;78.83
42705;BME280;28342;42.594;23.414;2022-09-09T04:18:31;94775.38;;;16.54;78.76
42705;BME280;28342;42.594;23.414;2022-09-09T04:20:57;94766.81;;;16.48;78.99
42705;BME280;28342;42.594;23.414;2022-09-09T04:23:24;94762.66;;;16.63;78.50
42705;BME280;28342;42.594;23.414;2022-09-09T04:25:51;94759.31;;;16.66;78.01
42705;BME280;28342;42.594;23.414;2022-09-09T04:28:18;94756.63;;;16.66;78.13
42705;BME280;28342;42.594;23.414;2022-09-09T04:30:45;94767.69;;;16.77;77.65
42705;BME280;28342;42.594;23.414;2022-09-09T04:33:13;94756.78;;;16.69;77.80
42705;BME280;28342;42.594;23.414;2022-09-09T04:35:39;94767.00;;;16.80;78.31
42705;BME280;28342;42.594;23.414;2022-09-09T04:38:08;94770.47;;;16.80;78.47
42705;BME280;28342;42.594;23.414;2022-09-09T04:40:35;94753.50;;;16.64;79.33
42705;BME280;28342;42.594;23.414;2022-09-09T04:43:01;94749.19;;;16.71;78.82
42705;BME280;28342;42.594;23.414;2022-09-09T04:45:28;94768.47;;;16.77;78.63
42705;BME280;28342;42.594;23.414;2022-09-09T04:47:54;94754.19;;;16.61;79.03
42705;BME280;28342;42.594;23.414;2022-09-09T04:50:20;94781.63;;;16.82;78.89
42705;BME280;28342;42.594;23.414;2022-09-09T04:52:45;94785.41;;;16.81;79.39
42705;BME280;28342;42.594;23.414;2022-09-09T04:55:11;94761.97;;;16.66;79.14
42705;BME280;28342;42.594;23.414;2022-09-09T04:57:38;94773.03;;;16.77;79.47
42705;BME280;28342;42.594;23.414;2022-09-09T05:00:04;94763.09;;;16.77;79.73
42705;BME280;28342;42.594;23.414;2022-09-09T05:02:44;94725.06;;;16.59;79.55
42705;BME280;28342;42.594;23.414;2022-09-09T05:05:10;94756.63;;;16.78;79.17
42705;BME280;28342;42.594;23.414;2022-09-09T05:07:37;94742.13;;;16.79;80.00
42705;BME280;28342;42.594;23.414;2022-09-09T05:10:04;94752.78;;;16.91;79.22
42705;BME280;28342;42.594;23.414;2022-09-09T05:12:31;94740.31;;;16.83;79.28
42705;BME280;28342;42.594;23.414;2022-09-09T05:14:57;94718.69;;;16.76;79.49
42705;BME280;28342;42.594;23.414;2022-09-09T05:17:23;94738.38;;;16.96;79.14
42705;BME280;28342;42.594;23.414;2022-09-09T05:19:49;94735.59;;;16.92;78.91
42705;BME280;28342;42.594;23.414;2022-09-09T05:22:21;94720.00;;;16.82;77.81
42705;BME280;28342;42.594;23.414;2022-09-09T05:24:49;94750.28;;;16.98;78.44
42705;BME280;28342;42.594;23.414;2022-09-09T05:27:18;94741.69;;;17.05;78.51
42705;BME280;28342;42.594;23.414;2022-09-09T05:29:45;94708.31;;;17.02;79.24
42705;BME280;28342;42.594;23.414;2022-09-09T05:32:12;94731.06;;;17.09;78.47
42705;BME280;28342;42.594;23.414;2022-09-09T05:34:41;94735.03;;;17.15;77.92
42705;BME280;28342;42.594;23.414;2022-09-09T05:37:06;94726.75;;;17.20;77.03
42705;BME280;28342;42.594;23.414;2022-09-09T05:39:34;94712.41;;;17.28;76.46
42705;BME280;28342;42.594;23.414;2022-09-09T05:42:02;94724.97;;;17.40;76.53
42705;BME280;28342;42.594;23.414;2022-09-09T05:44:29;94716.59;;;17.41;76.56
42705;BME280;28342;42.594;23.414;2022-09-09T05:46:55;94723.25;;;17.47;75.15
42705;BME280;28342;42.594;23.414;2022-09-09T05:49:20;94721.19;;;17.56;75.75
42705;BME280;28342;42.594;23.414;2022-09-09T05:51:46;94701.81;;;17.47;75.49
42705;BME280;28342;42.594;23.414;2022-09-09T05:54:13;94737.13;;;17.65;76.17
42705;BME280;28342;42.594;23.414;2022-09-09T05:56:40;94737.03;;;17.61;75.20
42705;BME280;28342;42.594;23.414;2022-09-09T05:59:06;94737.56;;;17.83;74.73
42705;BME280;28342;42.594;23.414;2022-09-09T06:01:34;94728.03;;;17.85;74.96
42705;BME280;28342;42.594;23.414;2022-09-09T06:04:00;94732.13;;;17.95;74.68
42705;BME280;28342;42.594;23.414;2022-09-09T06:09:17;94755.13;;;18.12;75.09
42705;BME280;28342;42.594;23.414;2022-09-09T06:11:50;94759.31;;;18.09;74.11
42705;BME280;28342;42.594;23.414;2022-09-09T06:14:18;94764.91;;;18.20;74.44
42705;BME280;28342;42.594;23.414;2022-09-09T06:16:54;94769.81;;;18.34;73.86
42705;BME280;28342;42.594;23.414;2022-09-09T06:19:31;94762.66;;;18.06;73.44
42705;BME280;28342;42.594;23.414;2022-09-09T06:21:57;94742.81;;;18.27;73.09
42705;BME280;28342;42.594;23.414;2022-09-09T06:24:22;94753.53;;;18.42;72.96
42705;BME280;28342;42.594;23.414;2022-09-09T06:26:55;94733.66;;;18.47;72.81
42705;BME280;28342;42.594;23.414;2022-09-09T06:29:25;94762.44;;;18.81;72.60
42705;BME280;28342;42.594;23.414;2022-09-09T06:32:19;94761.47;;;19.09;70.57
42705;BME280;28342;42.594;23.414;2022-09-09T06:34:48;94756.00;;;19.25;69.50
42705;BME280;28342;42.594;23.414;2022-09-09T06:37:14;94754.41;;;19.43;69.59
42705;BME280;28342;42.594;23.414;2022-09-09T06:39:39;94754.19;;;19.52;70.10
42705;BME280;28342;42.594;23.414;2022-09-09T06:42:05;94737.34;;;19.55;71.12
42705;BME280;28342;42.594;23.414;2022-09-09T06:44:33;94760.94;;;19.84;70.28
42705;BME280;28342;42.594;23.414;2022-09-09T06:46:59;94755.84;;;20.02;69.48
42705;BME280;28342;42.594;23.414;2022-09-09T06:49:25;94732.09;;;20.08;67.32
42705;BME280;28342;42.594;23.414;2022-09-09T06:51:50;94739.34;;;20.30;64.57
42705;BME280;28342;42.594;23.414;2022-09-09T06:54:17;94749.63;;;20.47;63.82
42705;BME280;28342;42.594;23.414;2022-09-09T06:56:44;94756.53;;;20.75;65.30
42705;BME280;28342;42.594;23.414;2022-09-09T06:59:17;94748.28;;;20.91;64.05
42705;BME280;28342;42.594;23.414;2022-09-09T07:01:44;94761.72;;;21.21;62.79
42705;BME280;28342;42.594;23.414;2022-09-09T07:04:16;94753.50;;;21.40;62.71
42705;BME280;28342;42.594;23.414;2022-09-09T07:06:45;94736.91;;;21.38;61.26
42705;BME280;28342;42.594;23.414;2022-09-09T07:09:47;94754.97;;;21.74;60.77
42705;BME280;28342;42.594;23.414;2022-09-09T07:12:36;94748.84;;;21.77;60.37
42705;BME280;28342;42.594;23.414;2022-09-09T07:43:00;94741.00;;;23.51;54.31
42705;BME280;28342;42.594;23.414;2022-09-09T07:45:42;94716.22;;;23.42;53.13
42705;BME280;28342;42.594;23.414;2022-09-09T07:56:43;94729.84;;;24.28;52.53
42705;BME280;28342;42.594;23.414;2022-09-09T07:59:22;94726.38;;;24.34;50.80
42705;BME280;28342;42.594;23.414;2022-09-09T08:02:12;94724.44;;;24.46;51.16
42705;BME280;28342;42.594;23.414;2022-09-09T08:05:21;94754.59;;;24.80;52.05
42705;BME280;28342;42.594;23.414;2022-09-09T08:08:34;94732.00;;;25.11;52.26
42705;BME280;28342;42.594;23.414;2022-09-09T08:11:40;94721.88;;;25.26;49.20
42705;BME280;28342;42.594;23.414;2022-09-09T08:18:23;94723.22;;;26.21;49.30
42705;BME280;28342;42.594;23.414;2022-09-09T08:21:08;94746.75;;;26.42;46.15
42705;BME280;28342;42.594;23.414;2022-09-09T08:23:51;94732.03;;;26.33;47.59
42705;BME280;28342;42.594;23.414;2022-09-09T08:29:17;94726.78;;;26.56;48.18
42705;BME280;28342;42.594;23.414;2022-09-09T08:31:48;94719.03;;;26.55;47.92
42705;BME280;28342;42.594;23.414;2022-09-09T08:38:00;94737.44;;;26.81;47.29
42705;BME280;28342;42.594;23.414;2022-09-09T08:50:59;94740.56;;;26.38;46.74
42705;BME280;28342;42.594;23.414;2022-09-09T08:57:45;94733.69;;;26.23;48.20
42705;BME280;28342;42.594;23.414;2022-09-09T09:27:15;94713.34;;;25.94;50.27
42705;BME280;28342;42.594;23.414;2022-09-09T09:29:43;94712.19;;;25.87;47.50
42705;BME280;28342;42.594;23.414;2022-09-09T09:32:18;94717.59;;;25.95;47.93
42705;BME280;28342;42.594;23.414;2022-09-09T09:34:51;94725.75;;;25.95;48.84
42705;BME280;28342;42.594;23.414;2022-09-09T09:37:41;94726.19;;;25.89;50.79
42705;BME280;28342;42.594;23.414;2022-09-09T09:40:27;94722.22;;;25.98;51.26
42705;BME280;28342;42.594;23.414;2022-09-09T09:43:01;94723.38;;;26.00;51.95
42705;BME280;28342;42.594;23.414;2022-09-09T10:06:49;94665.25;;;26.28;48.41
42705;BME280;28342;42.594;23.414;2022-09-09T10:09:37;94659.06;;;26.28;48.33
42705;BME280;28342;42.594;23.414;2022-09-09T10:19:32;94686.34;;;26.92;48.42
42705;BME280;28342;42.594;23.414;2022-09-09T10:22:22;94670.13;;;26.85;48.47
42705;BME280;28342;42.594;23.414;2022-09-09T10:25:34;94668.94;;;26.86;47.30
42705;BME280;28342;42.594;23.414;2022-09-09T10:28:51;94697.81;;;27.10;48.34
42705;BME280;28342;42.594;23.414;2022-09-09T11:08:57;94701.09;;;26.19;48.87
42705;BME280;28342;42.594;23.414;2022-09-09T11:12:03;94709.94;;;26.27;48.44
42705;BME280;28342;42.594;23.414;2022-09-09T11:18:49;94713.16;;;26.15;49.80
42705;BME280;28342;42.594;23.414;2022-09-09T11:25:31;94711.31;;;26.01;47.97
42705;BME280;28342;42.594;23.414;2022-09-09T11:42:22;94644.53;;;26.00;50.39
42705;BME280;28342;42.594;23.414;2022-09-09T11:44:49;94635.63;;;26.00;50.67
42705;BME280;28342;42.594;23.414;2022-09-09T11:47:24;94668.84;;;26.18;52.03
42705;BME280;28342;42.594;23.414;2022-09-09T11:52:46;94654.41;;;26.25;51.80
42705;BME280;28342;42.594;23.414;2022-09-09T11:55:34;94631.19;;;26.16;53.59
42705;BME280;28342;42.594;23.414;2022-09-09T11:58:18;94627.56;;;26.30;53.28
42705;BME280;28342;42.594;23.414;2022-09-09T12:00:46;94621.75;;;26.28;53.04
42705;BME280;28342;42.594;23.414;2022-09-09T12:06:31;94614.91;;;26.13;50.46
42705;BME280;28342;42.594;23.414;2022-09-09T12:09:22;94624.16;;;26.19;50.35
42705;BME280;28342;42.594;23.414;2022-09-09T12:11:51;94609.97;;;26.01;49.25
42705;BME280;28342;42.594;23.414;2022-09-09T12:14:35;94620.84;;;26.01;48.97
42705;BME280;28342;42.594;23.414;2022-09-09T12:20:06;94612.81;;;25.86;49.44
42705;BME280;28342;42.594;23.414;2022-09-09T12:28:16;94621.22;;;26.06;52.79
42705;BME280;28342;42.594;23.414;2022-09-09T12:33:16;94618.72;;;26.19;57.44
42705;BME280;28342;42.594;23.414;2022-09-09T12:35:43;94607.06;;;26.22;56.28
42705;BME280;28342;42.594;23.414;2022-09-09T12:38:26;94585.47;;;26.08;55.29
42705;BME280;28342;42.594;23.414;2022-09-09T12:40:56;94586.28;;;26.05;54.33
42705;BME280;28342;42.594;23.414;2022-09-09T12:43:24;94593.97;;;26.10;54.27
42705;BME280;28342;42.594;23.414;2022-09-09T12:46:17;94597.78;;;26.16;54.57
42705;BME280;28342;42.594;23.414;2022-09-09T12:49:31;94586.97;;;26.12;55.06
42705;BME280;28342;42.594;23.414;2022-09-09T12:52:03;94563.41;;;25.99;53.30
42705;BME280;28342;42.594;23.414;2022-09-09T12:54:56;94566.84;;;26.03;52.52
42705;BME280;28342;42.594;23.414;2022-09-09T12:57:56;94587.66;;;26.20;53.73
42705;BME280;28342;42.594;23.414;2022-09-09T13:00:24;94575.22;;;26.19;52.56
42705;BME280;28342;42.594;23.414;2022-09-09T13:02:55;94563.56;;;26.18;53.48
42705;BME280;28342;42.594;23.414;2022-09-09T13:05:26;94574.78;;;26.24;52.02
42705;BME280;28342;42.594;23.414;2022-09-09T13:08:11;94577.88;;;26.26;51.09
42705;BME280;28342;42.594;23.414;2022-09-09T13:10:50;94534.19;;;26.10;52.93
42705;BME280;28342;42.594;23.414;2022-09-09T13:13:23;94533.44;;;26.06;52.59
42705;BME280;28342;42.594;23.414;2022-09-09T13:15:52;94548.16;;;26.08;50.57
42705;BME280;28342;42.594;23.414;2022-09-09T13:18:26;94527.25;;;26.02;49.37
42705;BME280;28342;42.594;23.414;2022-09-09T13:20:54;94551.88;;;26.25;49.13
42705;BME280;28342;42.594;23.414;2022-09-09T13:23:37;94534.84;;;26.21;50.87
42705;BME280;28342;42.594;23.414;2022-09-09T13:26:23;94549.41;;;26.34;54.20
42705;BME280;28342;42.594;23.414;2022-09-09T13:28:48;94555.66;;;26.31;54.00
42705;BME280;28342;42.594;23.414;2022-09-09T13:31:36;94533.81;;;26.08;54.35
42705;BME280;28342;42.594;23.414;2022-09-09T13:34:27;94550.38;;;26.20;55.68
42705;BME280;28342;42.594;23.414;2022-09-09T13:37:00;94542.22;;;26.20;54.05
42705;BME280;28342;42.594;23.414;2022-09-09T13:39:33;94519.41;;;26.11;54.23
42705;BME280;28342;42.594;23.414;2022-09-09T13:42:04;94516.22;;;26.19;55.54
42705;BME280;28342;42.594;23.414;2022-09-09T13:45:00;94529.56;;;26.07;54.82
42705;BME280;28342;42.594;23.414;2022-09-09T13:47:39;94534.41;;;25.88;55.73
42705;BME280;28342;42.594;23.414;2022-09-09T13:50:25;94531.09;;;26.08;54.94
42705;BME280;28342;42.594;23.414;2022-09-09T13:53:29;94523.56;;;26.19;56.13
42705;BME280;28342;42.594;23.414;2022-09-09T13:56:05;94519.31;;;26.18;55.05
42705;BME280;28342;42.594;23.414;2022-09-09T13:58:30;94517.81;;;26.13;52.92
42705;BME280;28342;42.594;23.414;2022-09-09T14:01:03;94516.38;;;26.05;53.71
42705;BME280;28342;42.594;23.414;2022-09-09T14:03:30;94492.56;;;25.79;55.88
42705;BME280;28342;42.594;23.414;2022-09-09T14:05:56;94506.78;;;25.94;54.25
42705;BME280;28342;42.594;23.414;2022-09-09T14:08:26;94508.69;;;25.97;54.11
42705;BME280;28342;42.594;23.414;2022-09-09T14:11:13;94508.63;;;26.04;53.89
42705;BME280;28342;42.594;23.414;2022-09-09T14:14:06;94520.94;;;26.12;58.48
42705;BME280;28342;42.594;23.414;2022-09-09T14:16:33;94484.19;;;26.00;57.44
42705;BME280;28342;42.594;23.414;2022-09-09T14:19:09;94497.97;;;26.16;57.46
42705;BME280;28342;42.594;23.414;2022-09-09T14:21:35;94508.28;;;26.36;57.83
42705;BME280;28342;42.594;23.414;2022-09-09T14:24:20;94491.28;;;26.25;57.49
42705;BME280;28342;42.594;23.414;2022-09-09T14:26:46;94497.38;;;26.36;57.27
42705;BME280;28342;42.594;23.414;2022-09-09T14:29:13;94484.97;;;26.31;57.61
42705;BME280;28342;42.594;23.414;2022-09-09T14:31:54;94511.13;;;26.56;57.94
42705;BME280;28342;42.594;23.414;2022-09-09T14:34:26;94476.41;;;26.36;56.00
42705;BME280;28342;42.594;23.414;2022-09-09T14:36:52;94501.06;;;26.53;54.52
42705;BME280;28342;42.594;23.414;2022-09-09T14:39:17;94483.13;;;26.55;54.67
42705;BME280;28342;42.594;23.414;2022-09-09T14:41:43;94502.44;;;26.64;53.08
42705;BME280;28342;42.594;23.414;2022-09-09T14:44:09;94482.44;;;26.47;49.62
42705;BME280;28342;42.594;23.414;2022-09-09T14:46:37;94497.03;;;26.61;52.41
42705;BME280;28342;42.594;23.414;2022-09-09T14:49:04;94493.88;;;26.66;52.01
42705;BME280;28342;42.594;23.414;2022-09-09T14:51:29;94483.50;;;26.57;51.97
42705;BME280;28342;42.594;23.414;2022-09-09T14:53:58;94479.28;;;26.53;51.66
42705;BME280;28342;42.594;23.414;2022-09-09T14:56:42;94477.00;;;26.47;51.37
42705;BME280;28342;42.594;23.414;2022-09-09T14:59:13;94481.66;;;26.50;51.17
42705;BME280;28342;42.594;23.414;2022-09-09T15:01:39;94468.63;;;26.35;48.35
42705;BME280;28342;42.594;23.414;2022-09-09T15:04:06;94488.81;;;26.37;47.95
42705;BME280;28342;42.594;23.414;2022-09-09T15:06:34;94503.13;;;26.41;47.58
42705;BME280;28342;42.594;23.414;2022-09-09T15:09:05;94484.81;;;26.45;48.81
42705;BME280;28342;42.594;23.414;2022-09-09T15:11:34;94480.31;;;26.35;48.50
42705;BME280;28342;42.594;23.414;2022-09-09T15:14:04;94509.47;;;26.62;49.88
42705;BME280;28342;42.594;23.414;2022-09-09T15:16:30;94490.16;;;26.53;53.32
42705;BME280;28342;42.594;23.414;2022-09-09T15:18:59;94494.03;;;26.55;54.58
42705;BME280;28342;42.594;23.414;2022-09-09T15:21:27;94507.97;;;26.57;54.44
42705;BME280;28342;42.594;23.414;2022-09-09T15:23:53;94501.06;;;26.49;54.64
42705;BME280;28342;42.594;23.414;2022-09-09T15:26:20;94522.00;;;26.56;53.92
42705;BME280;28342;42.594;23.414;2022-09-09T15:28:47;94522.81;;;26.53;53.07
42705;BME280;28342;42.594;23.414;2022-09-09T15:31:39;94518.63;;;26.44;55.04
42705;BME280;28342;42.594;23.414;2022-09-09T15:34:30;94515.19;;;26.40;54.98
42705;BME280;28342;42.594;23.414;2022-09-09T15:37:03;94496.63;;;26.32;54.70
42705;BME280;28342;42.594;23.414;2022-09-09T15:39:29;94499.03;;;26.26;55.32
42705;BME280;28342;42.594;23.414;2022-09-09T15:42:01;94497.84;;;26.27;55.92
42705;BME280;28342;42.594;23.414;2022-09-09T15:44:39;94493.59;;;26.26;56.43
42705;BME280;28342;42.594;23.414;2022-09-09T15:47:05;94509.09;;;26.29;55.83
42705;BME280;28342;42.594;23.414;2022-09-09T15:49:33;94505.22;;;26.27;55.90
42705;BME280;28342;42.594;23.414;2022-09-09T15:51:59;94492.16;;;26.14;56.68
42705;BME280;28342;42.594;23.414;2022-09-09T15:54:31;94491.50;;;26.03;57.05
42705;BME280;28342;42.594;23.414;2022-09-09T15:56:59;94499.28;;;26.05;57.76
42705;BME280;28342;42.594;23.414;2022-09-09T15:59:27;94500.59;;;25.93;58.75
42705;BME280;28342;42.594;23.414;2022-09-09T16:01:53;94498.59;;;25.97;58.69
42705;BME280;28342;42.594;23.414;2022-09-09T16:04:23;94489.38;;;25.87;58.91
42705;BME280;28342;42.594;23.414;2022-09-09T16:06:59;94506.06;;;25.89;59.80
42705;BME280;28342;42.594;23.414;2022-09-09T16:09:28;94474.03;;;25.70;59.21
42705;BME280;28342;42.594;23.414;2022-09-09T16:12:05;94501.19;;;25.74;59.35
42705;BME280;28342;42.594;23.414;2022-09-09T16:14:32;94501.63;;;25.65;59.14
42705;BME280;28342;42.594;23.414;2022-09-09T16:17:02;94508.59;;;25.66;58.26
42705;BME280;28342;42.594;23.414;2022-09-09T16:19:29;94509.84;;;25.54;59.45
42705;BME280;28342;42.594;23.414;2022-09-09T16:21:56;94511.16;;;25.43;60.64
42705;BME280;28342;42.594;23.414;2022-09-09T16:24:23;94515.44;;;25.37;60.29
42705;BME280;28342;42.594;23.414;2022-09-09T16:27:05;94495.88;;;25.11;61.04
42705;BME280;28342;42.594;23.414;2022-09-09T16:29:31;94512.94;;;25.15;60.35
42705;BME280;28342;42.594;23.414;2022-09-09T16:31:58;94504.88;;;25.01;60.08
42705;BME280;28342;42.594;23.414;2022-09-09T16:34:33;94509.53;;;25.00;58.79
42705;BME280;28342;42.594;23.414;2022-09-09T16:36:59;94508.78;;;25.00;60.03
42705;BME280;28342;42.594;23.414;2022-09-09T16:39:48;94514.97;;;24.93;60.32
42705;BME280;28342;42.594;23.414;2022-09-09T16:42:18;94497.28;;;24.74;61.20
42705;BME280;28342;42.594;23.414;2022-09-09T16:45:07;94501.97;;;24.70;60.82
42705;BME280;28342;42.594;23.414;2022-09-09T16:47:40;94520.16;;;24.73;59.18
42705;BME280;28342;42.594;23.414;2022-09-09T16:50:06;94520.56;;;24.68;58.66
42705;BME280;28342;42.594;23.414;2022-09-09T16:52:53;94510.22;;;24.46;58.66
42705;BME280;28342;42.594;23.414;2022-09-09T16:55:41;94510.66;;;24.40;60.56
42705;BME280;28342;42.594;23.414;2022-09-09T16:58:12;94515.25;;;24.47;62.00
42705;BME280;28342;42.594;23.414;2022-09-09T17:00:38;94510.31;;;24.24;60.83
42705;BME280;28342;42.594;23.414;2022-09-09T17:03:03;94519.19;;;24.28;61.63
42705;BME280;28342;42.594;23.414;2022-09-09T17:05:29;94518.41;;;24.28;61.51
42705;BME280;28342;42.594;23.414;2022-09-09T17:07:55;94521.56;;;24.23;60.99
42705;BME280;28342;42.594;23.414;2022-09-09T17:10:28;94521.56;;;24.15;61.50
42705;BME280;28342;42.594;23.414;2022-09-09T17:12:54;94521.19;;;24.13;60.94
42705;BME280;28342;42.594;23.414;2022-09-09T17:15:28;94524.72;;;24.07;61.42
42705;BME280;28342;42.594;23.414;2022-09-09T17:17:55;94525.88;;;24.02;62.20
42705;BME280;28342;42.594;23.414;2022-09-09T17:20:41;94530.88;;;24.04;62.35
42705;BME280;28342;42.594;23.414;2022-09-09T17:23:11;94507.72;;;23.89;64.21
42705;BME280;28342;42.594;23.414;2022-09-09T17:26:17;94530.97;;;23.90;65.01
42705;BME280;28342;42.594;23.414;2022-09-09T17:29:03;94523.66;;;23.65;66.06